sensor_id;sensor_type;location;lat;lon;timestamp;P1;durP1;ratioP1;P2;durP2;ratioP2
69150;SDS011;56257;52.196;13.870;2022-08-11T00:01:57;4.60;;;2.50;;
69150;SDS011;56257;52.196;13.870;2022-08-11T00:04:24;4.90;;;2.70;;
69150;SDS011;56257;52.196;13.870;2022-08-11T00:06:52;5.07;;;2.58;;
69150;SDS011;56257;52.196;13.870;2022-08-11T00:09:22;5.43;;;3.10;;
69150;SDS011;56257;52.196;13.870;2022-08-11T00:12:05;4.93;;;2.78;;
69150;SDS011;56257;52.196;13.870;2022-08-11T00:14:42;6.90;;;2.63;;
69150;SDS011;56257;52.196;13.870;2022-08-11T00:17:11;4.82;;;2.90;;
69150;SDS011;56257;52.196;13.870;2022-08-11T00:19:47;5.20;;;2.53;;
69150;SDS011;56257;52.196;13.870;2022-08-11T00:22:35;4.22;;;2.38;;
69150;SDS011;56257;52.196;13.870;2022-08-11T00:25:12;4.90;;;2.80;;
69150;SDS011;56257;52.196;13.870;2022-08-11T00:27:40;6.37;;;2.53;;
69150;SDS011;56257;52.196;13.870;2022-08-11T00:30:08;5.65;;;3.00;;
69150;SDS011;56257;52.196;13.870;2022-08-11T00:32:36;4.90;;;2.60;;
69150;SDS011;56257;52.196;13.870;2022-08-11T00:35:04;5.40;;;3.22;;
69150;SDS011;56257;52.196;13.870;2022-08-11T00:37:53;5.75;;;3.08;;
69150;SDS011;56257;52.196;13.870;2022-08-11T00:43:16;6.00;;;2.95;;
69150;SDS011;56257;52.196;13.870;2022-08-11T00:52:07;5.10;;;2.80;;
69150;SDS011;56257;52.196;13.870;2022-08-11T00:55:02;5.53;;;3.50;;
69150;SDS011;56257;52.196;13.870;2022-08-11T01:00:23;4.25;;;2.83;;
69150;SDS011;56257;52.196;13.870;2022-08-11T01:09:08;4.73;;;2.73;;
69150;SDS011;56257;52.196;13.870;2022-08-11T01:38:05;4.67;;;2.70;;
69150;SDS011;56257;52.196;13.870;2022-08-11T01:47:33;5.63;;;2.92;;
69150;SDS011;56257;52.196;13.870;2022-08-11T01:53:29;4.77;;;2.80;;
69150;SDS011;56257;52.196;13.870;2022-08-11T01:56:12;5.03;;;3.20;;
69150;SDS011;56257;52.196;13.870;2022-08-11T02:01:44;5.97;;;3.17;;
69150;SDS011;56257;52.196;13.870;2022-08-11T02:04:33;5.03;;;3.13;;
69150;SDS011;56257;52.196;13.870;2022-08-11T02:09:55;6.78;;;3.30;;
69150;SDS011;56257;52.196;13.870;2022-08-11T02:13:11;4.85;;;2.83;;
69150;SDS011;56257;52.196;13.870;2022-08-11T02:15:53;4.60;;;2.90;;
69150;SDS011;56257;52.196;13.870;2022-08-11T02:18:23;5.20;;;3.08;;
69150;SDS011;56257;52.196;13.870;2022-08-11T02:21:15;5.50;;;3.13;;
69150;SDS011;56257;52.196;13.870;2022-08-11T02:24:05;6.05;;;3.08;;
69150;SDS011;56257;52.196;13.870;2022-08-11T02:26:43;4.70;;;3.15;;
69150;SDS011;56257;52.196;13.870;2022-08-11T02:32:17;6.70;;;3.17;;
69150;SDS011;56257;52.196;13.870;2022-08-11T02:37:41;4.63;;;2.60;;
69150;SDS011;56257;52.196;13.870;2022-08-11T02:43:16;4.72;;;2.80;;
69150;SDS011;56257;52.196;13.870;2022-08-11T02:48:58;4.43;;;3.10;;
69150;SDS011;56257;52.196;13.870;2022-08-11T02:54:22;5.78;;;2.80;;
69150;SDS011;56257;52.196;13.870;2022-08-11T03:02:23;5.00;;;3.17;;
69150;SDS011;56257;52.196;13.870;2022-08-11T03:07:33;4.03;;;2.88;;
69150;SDS011;56257;52.196;13.870;2022-08-11T03:10:24;5.78;;;3.10;;
69150;SDS011;56257;52.196;13.870;2022-08-11T03:16:17;5.20;;;3.37;;
69150;SDS011;56257;52.196;13.870;2022-08-11T03:22:32;5.10;;;3.20;;
69150;SDS011;56257;52.196;13.870;2022-08-11T03:25:08;4.40;;;2.92;;
69150;SDS011;56257;52.196;13.870;2022-08-11T03:27:59;5.32;;;3.47;;
69150;SDS011;56257;52.196;13.870;2022-08-11T03:33:20;6.18;;;3.35;;
69150;SDS011;56257;52.196;13.870;2022-08-11T03:36:21;6.63;;;3.20;;
69150;SDS011;56257;52.196;13.870;2022-08-11T03:42:48;5.82;;;3.15;;
69150;SDS011;56257;52.196;13.870;2022-08-11T03:48:18;6.50;;;3.15;;
69150;SDS011;56257;52.196;13.870;2022-08-11T04:17:04;4.40;;;3.00;;
69150;SDS011;56257;52.196;13.870;2022-08-11T04:19:54;4.88;;;3.20;;
69150;SDS011;56257;52.196;13.870;2022-08-11T04:27:50;6.13;;;3.37;;
69150;SDS011;56257;52.196;13.870;2022-08-11T04:30:41;6.05;;;3.40;;
69150;SDS011;56257;52.196;13.870;2022-08-11T04:36:34;6.93;;;3.80;;
69150;SDS011;56257;52.196;13.870;2022-08-11T04:45:43;5.00;;;3.28;;
69150;SDS011;56257;52.196;13.870;2022-08-11T05:10:55;7.68;;;3.85;;
69150;SDS011;56257;52.196;13.870;2022-08-11T05:13:36;6.00;;;3.37;;
69150;SDS011;56257;52.196;13.870;2022-08-11T05:16:30;6.38;;;3.65;;
69150;SDS011;56257;52.196;13.870;2022-08-11T05:19:19;6.25;;;3.75;;
69150;SDS011;56257;52.196;13.870;2022-08-11T05:22:06;7.80;;;3.90;;
69150;SDS011;56257;52.196;13.870;2022-08-11T05:25:09;9.32;;;3.78;;
69150;SDS011;56257;52.196;13.870;2022-08-11T05:31:17;5.25;;;3.45;;
69150;SDS011;56257;52.196;13.870;2022-08-11T05:34:11;8.10;;;4.03;;
69150;SDS011;56257;52.196;13.870;2022-08-11T05:37:08;6.72;;;3.83;;
69150;SDS011;56257;52.196;13.870;2022-08-11T05:39:53;6.22;;;3.67;;
69150;SDS011;56257;52.196;13.870;2022-08-11T05:42:42;6.23;;;3.77;;
69150;SDS011;56257;52.196;13.870;2022-08-11T05:45:33;6.63;;;3.75;;
69150;SDS011;56257;52.196;13.870;2022-08-11T05:48:31;6.38;;;3.72;;
69150;SDS011;56257;52.196;13.870;2022-08-11T05:51:17;5.63;;;3.70;;
69150;SDS011;56257;52.196;13.870;2022-08-11T05:54:06;5.90;;;3.70;;
69150;SDS011;56257;52.196;13.870;2022-08-11T05:56:58;6.53;;;4.07;;
69150;SDS011;56257;52.196;13.870;2022-08-11T05:59:25;6.88;;;4.00;;
69150;SDS011;56257;52.196;13.870;2022-08-11T06:02:02;7.90;;;3.90;;
69150;SDS011;56257;52.196;13.870;2022-08-11T06:04:31;6.82;;;4.40;;
69150;SDS011;56257;52.196;13.870;2022-08-11T06:07:00;7.68;;;4.50;;
69150;SDS011;56257;52.196;13.870;2022-08-11T06:09:33;7.33;;;4.63;;
69150;SDS011;56257;52.196;13.870;2022-08-11T06:12:05;5.90;;;4.10;;
69150;SDS011;56257;52.196;13.870;2022-08-11T06:14:42;6.68;;;4.30;;
69150;SDS011;56257;52.196;13.870;2022-08-11T06:17:11;5.85;;;4.20;;
69150;SDS011;56257;52.196;13.870;2022-08-11T06:19:39;8.05;;;4.38;;
69150;SDS011;56257;52.196;13.870;2022-08-11T06:22:08;8.03;;;4.50;;
69150;SDS011;56257;52.196;13.870;2022-08-11T06:24:39;7.30;;;4.38;;
69150;SDS011;56257;52.196;13.870;2022-08-11T06:27:07;6.93;;;4.30;;
69150;SDS011;56257;52.196;13.870;2022-08-11T06:29:44;6.55;;;4.18;;
69150;SDS011;56257;52.196;13.870;2022-08-11T06:32:24;8.23;;;4.60;;
69150;SDS011;56257;52.196;13.870;2022-08-11T06:40:47;7.00;;;4.47;;
69150;SDS011;56257;52.196;13.870;2022-08-11T06:46:28;6.75;;;3.90;;
69150;SDS011;56257;52.196;13.870;2022-08-11T06:48:56;7.63;;;4.00;;
69150;SDS011;56257;52.196;13.870;2022-08-11T06:51:27;6.00;;;4.35;;
69150;SDS011;56257;52.196;13.870;2022-08-11T06:53:59;5.88;;;3.92;;
69150;SDS011;56257;52.196;13.870;2022-08-11T06:56:39;5.93;;;4.30;;
69150;SDS011;56257;52.196;13.870;2022-08-11T06:59:45;6.65;;;3.75;;
69150;SDS011;56257;52.196;13.870;2022-08-11T07:02:46;7.40;;;4.10;;
69150;SDS011;56257;52.196;13.870;2022-08-11T07:14:01;5.45;;;3.42;;
69150;SDS011;56257;52.196;13.870;2022-08-11T07:16:49;5.43;;;3.57;;
69150;SDS011;56257;52.196;13.870;2022-08-11T07:19:19;6.88;;;3.58;;
69150;SDS011;56257;52.196;13.870;2022-08-11T07:22:08;11.90;;;3.83;;
69150;SDS011;56257;52.196;13.870;2022-08-11T07:24:58;10.18;;;3.97;;
69150;SDS011;56257;52.196;13.870;2022-08-11T07:30:38;9.73;;;4.00;;
69150;SDS011;56257;52.196;13.870;2022-08-11T07:33:06;12.18;;;3.65;;
69150;SDS011;56257;52.196;13.870;2022-08-11T07:35:41;10.88;;;3.80;;
69150;SDS011;56257;52.196;13.870;2022-08-11T07:38:21;10.23;;;3.80;;
69150;SDS011;56257;52.196;13.870;2022-08-11T07:40:50;7.13;;;3.40;;
69150;SDS011;56257;52.196;13.870;2022-08-11T07:43:17;9.23;;;3.47;;
69150;SDS011;56257;52.196;13.870;2022-08-11T07:45:44;7.78;;;2.78;;
69150;SDS011;56257;52.196;13.870;2022-08-11T07:48:29;10.38;;;3.20;;
69150;SDS011;56257;52.196;13.870;2022-08-11T07:51:17;7.40;;;3.30;;
69150;SDS011;56257;52.196;13.870;2022-08-11T07:54:04;8.68;;;3.50;;
69150;SDS011;56257;52.196;13.870;2022-08-11T07:56:42;7.47;;;3.20;;
69150;SDS011;56257;52.196;13.870;2022-08-11T07:59:21;8.65;;;3.30;;
69150;SDS011;56257;52.196;13.870;2022-08-11T08:02:26;6.60;;;3.13;;
69150;SDS011;56257;52.196;13.870;2022-08-11T08:05:13;7.80;;;3.20;;
69150;SDS011;56257;52.196;13.870;2022-08-11T08:07:59;6.65;;;3.20;;
69150;SDS011;56257;52.196;13.870;2022-08-11T08:10:44;5.33;;;3.30;;
69150;SDS011;56257;52.196;13.870;2022-08-11T08:13:31;6.15;;;3.10;;
69150;SDS011;56257;52.196;13.870;2022-08-11T08:16:17;4.75;;;2.85;;
69150;SDS011;56257;52.196;13.870;2022-08-11T08:19:03;7.40;;;3.38;;
69150;SDS011;56257;52.196;13.870;2022-08-11T08:21:30;5.72;;;3.10;;
69150;SDS011;56257;52.196;13.870;2022-08-11T08:23:57;7.27;;;2.60;;
69150;SDS011;56257;52.196;13.870;2022-08-11T08:26:24;7.72;;;2.80;;
69150;SDS011;56257;52.196;13.870;2022-08-11T08:29:17;10.15;;;3.10;;
69150;SDS011;56257;52.196;13.870;2022-08-11T08:32:03;6.68;;;3.00;;
69150;SDS011;56257;52.196;13.870;2022-08-11T08:34:30;6.35;;;2.75;;
69150;SDS011;56257;52.196;13.870;2022-08-11T08:36:59;9.17;;;2.77;;
69150;SDS011;56257;52.196;13.870;2022-08-11T08:39:25;8.18;;;2.80;;
69150;SDS011;56257;52.196;13.870;2022-08-11T08:41:53;6.30;;;2.85;;
69150;SDS011;56257;52.196;13.870;2022-08-11T08:44:21;7.40;;;2.60;;
69150;SDS011;56257;52.196;13.870;2022-08-11T08:47:08;7.03;;;2.75;;
69150;SDS011;56257;52.196;13.870;2022-08-11T08:49:40;14.23;;;3.23;;
69150;SDS011;56257;52.196;13.870;2022-08-11T08:52:15;8.38;;;2.67;;
69150;SDS011;56257;52.196;13.870;2022-08-11T08:55:01;8.70;;;3.25;;
69150;SDS011;56257;52.196;13.870;2022-08-11T08:57:29;8.73;;;3.00;;
69150;SDS011;56257;52.196;13.870;2022-08-11T09:00:05;9.98;;;3.00;;
69150;SDS011;56257;52.196;13.870;2022-08-11T09:02:34;9.60;;;3.00;;
69150;SDS011;56257;52.196;13.870;2022-08-11T09:05:02;11.65;;;2.97;;
69150;SDS011;56257;52.196;13.870;2022-08-11T09:07:30;10.02;;;3.20;;
69150;SDS011;56257;52.196;13.870;2022-08-11T09:10:05;10.48;;;2.92;;
69150;SDS011;56257;52.196;13.870;2022-08-11T09:12:33;10.18;;;2.88;;
69150;SDS011;56257;52.196;13.870;2022-08-11T09:15:04;14.87;;;2.80;;
69150;SDS011;56257;52.196;13.870;2022-08-11T09:17:35;9.45;;;2.85;;
69150;SDS011;56257;52.196;13.870;2022-08-11T09:20:06;12.13;;;3.00;;
69150;SDS011;56257;52.196;13.870;2022-08-11T09:22:37;12.50;;;3.00;;
69150;SDS011;56257;52.196;13.870;2022-08-11T09:25:45;9.27;;;2.88;;
69150;SDS011;56257;52.196;13.870;2022-08-11T09:28:31;10.73;;;2.90;;
69150;SDS011;56257;52.196;13.870;2022-08-11T09:30:58;12.95;;;3.30;;
69150;SDS011;56257;52.196;13.870;2022-08-11T09:33:26;13.90;;;3.63;;
69150;SDS011;56257;52.196;13.870;2022-08-11T09:35:54;13.98;;;3.38;;
69150;SDS011;56257;52.196;13.870;2022-08-11T09:38:22;15.32;;;3.92;;
69150;SDS011;56257;52.196;13.870;2022-08-11T09:41:14;8.47;;;2.40;;
69150;SDS011;56257;52.196;13.870;2022-08-11T09:43:42;15.40;;;3.17;;
69150;SDS011;56257;52.196;13.870;2022-08-11T09:46:29;11.82;;;3.47;;
69150;SDS011;56257;52.196;13.870;2022-08-11T09:48:58;7.60;;;2.88;;
69150;SDS011;56257;52.196;13.870;2022-08-11T09:51:29;8.32;;;2.88;;
69150;SDS011;56257;52.196;13.870;2022-08-11T09:54:01;14.27;;;3.40;;
69150;SDS011;56257;52.196;13.870;2022-08-11T09:56:32;11.55;;;3.17;;
69150;SDS011;56257;52.196;13.870;2022-08-11T09:59:18;10.32;;;3.10;;
69150;SDS011;56257;52.196;13.870;2022-08-11T10:01:48;14.30;;;3.15;;
69150;SDS011;56257;52.196;13.870;2022-08-11T10:04:30;10.20;;;3.03;;
69150;SDS011;56257;52.196;13.870;2022-08-11T10:07:12;7.50;;;3.40;;
69150;SDS011;56257;52.196;13.870;2022-08-11T10:09:43;11.75;;;3.17;;
69150;SDS011;56257;52.196;13.870;2022-08-11T10:14:55;5.30;;;2.90;;
69150;SDS011;56257;52.196;13.870;2022-08-11T10:17:45;6.47;;;3.38;;
69150;SDS011;56257;52.196;13.870;2022-08-11T10:20:34;6.73;;;3.07;;
69150;SDS011;56257;52.196;13.870;2022-08-11T10:23:02;8.95;;;2.88;;
69150;SDS011;56257;52.196;13.870;2022-08-11T10:25:47;5.00;;;2.90;;
69150;SDS011;56257;52.196;13.870;2022-08-11T10:28:33;5.65;;;2.70;;
69150;SDS011;56257;52.196;13.870;2022-08-11T10:31:21;5.53;;;2.78;;
69150;SDS011;56257;52.196;13.870;2022-08-11T10:34:24;7.67;;;3.47;;
69150;SDS011;56257;52.196;13.870;2022-08-11T10:36:54;4.55;;;2.42;;
69150;SDS011;56257;52.196;13.870;2022-08-11T10:39:22;6.00;;;2.80;;
69150;SDS011;56257;52.196;13.870;2022-08-11T10:41:49;4.93;;;3.13;;
69150;SDS011;56257;52.196;13.870;2022-08-11T10:44:51;4.60;;;2.70;;
69150;SDS011;56257;52.196;13.870;2022-08-11T10:47:19;5.00;;;2.70;;
69150;SDS011;56257;52.196;13.870;2022-08-11T10:50:11;5.40;;;2.80;;
69150;SDS011;56257;52.196;13.870;2022-08-11T10:52:58;5.47;;;2.97;;
69150;SDS011;56257;52.196;13.870;2022-08-11T10:55:44;4.38;;;2.92;;
69150;SDS011;56257;52.196;13.870;2022-08-11T10:58:35;5.22;;;2.33;;
69150;SDS011;56257;52.196;13.870;2022-08-11T11:01:17;6.27;;;3.03;;
69150;SDS011;56257;52.196;13.870;2022-08-11T11:03:55;4.05;;;2.83;;
69150;SDS011;56257;52.196;13.870;2022-08-11T11:06:30;4.95;;;2.80;;
69150;SDS011;56257;52.196;13.870;2022-08-11T11:09:06;6.13;;;2.60;;
69150;SDS011;56257;52.196;13.870;2022-08-11T11:11:41;6.05;;;2.60;;
69150;SDS011;56257;52.196;13.870;2022-08-11T11:14:30;4.30;;;2.30;;
69150;SDS011;56257;52.196;13.870;2022-08-11T11:17:26;5.75;;;2.67;;
69150;SDS011;56257;52.196;13.870;2022-08-11T11:20:13;5.32;;;2.70;;
69150;SDS011;56257;52.196;13.870;2022-08-11T11:23:04;4.90;;;2.85;;
69150;SDS011;56257;52.196;13.870;2022-08-11T11:34:22;3.92;;;2.38;;
69150;SDS011;56257;52.196;13.870;2022-08-11T11:37:19;3.88;;;2.17;;
69150;SDS011;56257;52.196;13.870;2022-08-11T11:39:48;4.93;;;2.63;;
69150;SDS011;56257;52.196;13.870;2022-08-11T11:42:15;4.00;;;2.23;;
69150;SDS011;56257;52.196;13.870;2022-08-11T11:44:43;4.07;;;2.10;;
69150;SDS011;56257;52.196;13.870;2022-08-11T11:47:11;4.32;;;2.25;;
69150;SDS011;56257;52.196;13.870;2022-08-11T11:49:39;4.93;;;2.47;;
69150;SDS011;56257;52.196;13.870;2022-08-11T11:52:12;3.80;;;2.20;;
69150;SDS011;56257;52.196;13.870;2022-08-11T11:54:40;5.80;;;2.20;;
69150;SDS011;56257;52.196;13.870;2022-08-11T11:57:07;3.60;;;2.30;;
69150;SDS011;56257;52.196;13.870;2022-08-11T11:59:54;4.38;;;2.10;;
69150;SDS011;56257;52.196;13.870;2022-08-11T12:02:40;5.75;;;2.00;;
69150;SDS011;56257;52.196;13.870;2022-08-11T12:05:09;5.07;;;1.85;;
69150;SDS011;56257;52.196;13.870;2022-08-11T12:07:36;5.97;;;2.50;;
69150;SDS011;56257;52.196;13.870;2022-08-11T12:10:51;5.30;;;1.90;;
69150;SDS011;56257;52.196;13.870;2022-08-11T12:13:41;5.15;;;2.10;;
69150;SDS011;56257;52.196;13.870;2022-08-11T12:16:11;5.40;;;1.98;;
69150;SDS011;56257;52.196;13.870;2022-08-11T12:18:59;5.30;;;2.20;;
69150;SDS011;56257;52.196;13.870;2022-08-11T12:21:26;4.37;;;2.17;;
69150;SDS011;56257;52.196;13.870;2022-08-11T12:23:54;3.58;;;1.98;;
69150;SDS011;56257;52.196;13.870;2022-08-11T12:26:41;4.20;;;1.70;;
69150;SDS011;56257;52.196;13.870;2022-08-11T12:29:43;6.00;;;2.00;;
69150;SDS011;56257;52.196;13.870;2022-08-11T12:32:21;6.75;;;1.85;;
69150;SDS011;56257;52.196;13.870;2022-08-11T12:34:55;4.90;;;2.00;;
69150;SDS011;56257;52.196;13.870;2022-08-11T12:37:27;3.50;;;1.70;;
69150;SDS011;56257;52.196;13.870;2022-08-11T12:40:00;5.30;;;1.60;;
69150;SDS011;56257;52.196;13.870;2022-08-11T12:43:18;5.25;;;1.50;;
69150;SDS011;56257;52.196;13.870;2022-08-11T12:46:06;6.60;;;1.70;;
69150;SDS011;56257;52.196;13.870;2022-08-11T12:48:36;5.07;;;1.80;;
69150;SDS011;56257;52.196;13.870;2022-08-11T12:51:35;4.15;;;1.73;;
69150;SDS011;56257;52.196;13.870;2022-08-11T12:54:47;5.05;;;1.50;;
69150;SDS011;56257;52.196;13.870;2022-08-11T12:57:37;3.97;;;1.55;;
69150;SDS011;56257;52.196;13.870;2022-08-11T13:00:24;3.55;;;1.60;;
69150;SDS011;56257;52.196;13.870;2022-08-11T13:03:10;4.67;;;1.97;;
69150;SDS011;56257;52.196;13.870;2022-08-11T13:05:56;5.00;;;1.83;;
69150;SDS011;56257;52.196;13.870;2022-08-11T13:08:26;3.70;;;1.50;;
69150;SDS011;56257;52.196;13.870;2022-08-11T13:10:55;4.03;;;1.65;;
69150;SDS011;56257;52.196;13.870;2022-08-11T13:13:42;3.95;;;1.98;;
69150;SDS011;56257;52.196;13.870;2022-08-11T13:16:23;4.33;;;1.60;;
69150;SDS011;56257;52.196;13.870;2022-08-11T13:18:51;6.05;;;1.80;;
69150;SDS011;56257;52.196;13.870;2022-08-11T13:21:19;5.97;;;1.70;;
69150;SDS011;56257;52.196;13.870;2022-08-11T13:23:50;3.97;;;1.40;;
69150;SDS011;56257;52.196;13.870;2022-08-11T13:26:34;4.03;;;1.50;;
69150;SDS011;56257;52.196;13.870;2022-08-11T13:29:19;4.60;;;1.80;;
69150;SDS011;56257;52.196;13.870;2022-08-11T13:31:47;3.60;;;1.45;;
69150;SDS011;56257;52.196;13.870;2022-08-11T13:34:14;4.65;;;1.67;;
69150;SDS011;56257;52.196;13.870;2022-08-11T13:36:42;3.95;;;1.70;;
69150;SDS011;56257;52.196;13.870;2022-08-11T13:39:09;3.80;;;1.48;;
69150;SDS011;56257;52.196;13.870;2022-08-11T13:41:36;3.20;;;1.30;;
69150;SDS011;56257;52.196;13.870;2022-08-11T13:44:07;5.30;;;1.65;;
69150;SDS011;56257;52.196;13.870;2022-08-11T13:46:36;3.65;;;1.83;;
69150;SDS011;56257;52.196;13.870;2022-08-11T13:49:04;4.18;;;1.40;;
69150;SDS011;56257;52.196;13.870;2022-08-11T13:51:35;4.70;;;1.40;;
69150;SDS011;56257;52.196;13.870;2022-08-11T13:54:04;4.90;;;1.83;;
69150;SDS011;56257;52.196;13.870;2022-08-11T13:56:33;7.07;;;1.90;;
69150;SDS011;56257;52.196;13.870;2022-08-11T13:59:02;5.20;;;1.90;;
69150;SDS011;56257;52.196;13.870;2022-08-11T14:01:31;3.47;;;1.70;;
69150;SDS011;56257;52.196;13.870;2022-08-11T14:04:24;4.13;;;1.55;;
69150;SDS011;56257;52.196;13.870;2022-08-11T14:07:06;4.30;;;1.40;;
69150;SDS011;56257;52.196;13.870;2022-08-11T14:09:38;3.70;;;1.70;;
69150;SDS011;56257;52.196;13.870;2022-08-11T14:12:12;12.60;;;1.75;;
69150;SDS011;56257;52.196;13.870;2022-08-11T14:15:00;5.53;;;1.40;;
69150;SDS011;56257;52.196;13.870;2022-08-11T14:17:34;5.75;;;1.45;;
69150;SDS011;56257;52.196;13.870;2022-08-11T14:20:15;5.23;;;1.50;;
69150;SDS011;56257;52.196;13.870;2022-08-11T14:23:03;3.25;;;1.30;;
69150;SDS011;56257;52.196;13.870;2022-08-11T14:25:30;3.55;;;1.30;;
69150;SDS011;56257;52.196;13.870;2022-08-11T14:28:17;4.00;;;1.20;;
69150;SDS011;56257;52.196;13.870;2022-08-11T14:31:02;3.05;;;1.50;;
69150;SDS011;56257;52.196;13.870;2022-08-11T14:33:30;4.20;;;1.10;;
69150;SDS011;56257;52.196;13.870;2022-08-11T14:36:19;5.10;;;1.40;;
69150;SDS011;56257;52.196;13.870;2022-08-11T14:38:48;4.97;;;1.58;;
69150;SDS011;56257;52.196;13.870;2022-08-11T14:41:15;6.90;;;1.50;;
69150;SDS011;56257;52.196;13.870;2022-08-11T14:44:22;4.95;;;1.42;;
69150;SDS011;56257;52.196;13.870;2022-08-11T14:47:09;4.37;;;1.60;;
69150;SDS011;56257;52.196;13.870;2022-08-11T14:49:50;4.30;;;1.67;;
69150;SDS011;56257;52.196;13.870;2022-08-11T14:52:36;5.32;;;1.58;;
69150;SDS011;56257;52.196;13.870;2022-08-11T14:55:03;4.00;;;1.50;;
69150;SDS011;56257;52.196;13.870;2022-08-11T14:57:49;5.40;;;1.75;;
69150;SDS011;56257;52.196;13.870;2022-08-11T15:00:22;13.70;;;1.80;;
69150;SDS011;56257;52.196;13.870;2022-08-11T15:02:49;15.82;;;1.88;;
69150;SDS011;56257;52.196;13.870;2022-08-11T15:05:40;5.90;;;1.58;;
69150;SDS011;56257;52.196;13.870;2022-08-11T15:08:23;5.00;;;1.40;;
69150;SDS011;56257;52.196;13.870;2022-08-11T15:11:18;4.80;;;1.70;;
69150;SDS011;56257;52.196;13.870;2022-08-11T15:14:06;4.77;;;1.47;;
69150;SDS011;56257;52.196;13.870;2022-08-11T15:16:37;3.53;;;1.60;;
69150;SDS011;56257;52.196;13.870;2022-08-11T15:19:27;4.13;;;1.25;;
69150;SDS011;56257;52.196;13.870;2022-08-11T15:22:05;3.10;;;1.50;;
69150;SDS011;56257;52.196;13.870;2022-08-11T15:24:53;4.05;;;1.40;;
69150;SDS011;56257;52.196;13.870;2022-08-11T15:27:20;4.13;;;1.20;;
69150;SDS011;56257;52.196;13.870;2022-08-11T15:30:06;4.65;;;1.63;;
69150;SDS011;56257;52.196;13.870;2022-08-11T15:33:06;3.92;;;1.30;;
69150;SDS011;56257;52.196;13.870;2022-08-11T15:35:52;4.30;;;1.20;;
69150;SDS011;56257;52.196;13.870;2022-08-11T15:38:40;4.45;;;1.30;;
69150;SDS011;56257;52.196;13.870;2022-08-11T15:41:09;5.50;;;1.50;;
69150;SDS011;56257;52.196;13.870;2022-08-11T15:43:58;4.40;;;1.30;;
69150;SDS011;56257;52.196;13.870;2022-08-11T15:46:45;5.00;;;1.38;;
69150;SDS011;56257;52.196;13.870;2022-08-11T15:49:21;6.32;;;1.40;;
69150;SDS011;56257;52.196;13.870;2022-08-11T15:51:56;6.88;;;1.50;;
69150;SDS011;56257;52.196;13.870;2022-08-11T15:54:28;6.83;;;1.70;;
69150;SDS011;56257;52.196;13.870;2022-08-11T15:56:57;4.63;;;1.30;;
69150;SDS011;56257;52.196;13.870;2022-08-11T15:59:27;5.80;;;1.33;;
69150;SDS011;56257;52.196;13.870;2022-08-11T16:02:15;3.63;;;1.27;;
69150;SDS011;56257;52.196;13.870;2022-08-11T16:05:05;3.85;;;1.48;;
69150;SDS011;56257;52.196;13.870;2022-08-11T16:07:34;4.17;;;1.33;;
69150;SDS011;56257;52.196;13.870;2022-08-11T16:10:10;3.75;;;1.45;;
69150;SDS011;56257;52.196;13.870;2022-08-11T16:12:45;5.22;;;1.30;;
69150;SDS011;56257;52.196;13.870;2022-08-11T16:15:33;3.38;;;1.48;;
69150;SDS011;56257;52.196;13.870;2022-08-11T16:18:20;3.05;;;1.20;;
69150;SDS011;56257;52.196;13.870;2022-08-11T16:21:10;3.10;;;1.30;;
69150;SDS011;56257;52.196;13.870;2022-08-11T16:23:58;3.45;;;1.60;;
69150;SDS011;56257;52.196;13.870;2022-08-11T16:26:26;5.25;;;1.73;;
69150;SDS011;56257;52.196;13.870;2022-08-11T16:29:14;3.63;;;1.20;;
69150;SDS011;56257;52.196;13.870;2022-08-11T16:31:41;3.38;;;1.38;;
69150;SDS011;56257;52.196;13.870;2022-08-11T16:34:28;4.50;;;1.80;;
69150;SDS011;56257;52.196;13.870;2022-08-11T16:37:14;4.18;;;1.42;;
69150;SDS011;56257;52.196;13.870;2022-08-11T16:40:00;5.68;;;2.15;;
69150;SDS011;56257;52.196;13.870;2022-08-11T16:42:27;5.35;;;1.50;;
69150;SDS011;56257;52.196;13.870;2022-08-11T16:45:32;5.55;;;1.73;;
69150;SDS011;56257;52.196;13.870;2022-08-11T16:48:18;4.57;;;1.77;;
69150;SDS011;56257;52.196;13.870;2022-08-11T16:51:06;5.45;;;1.85;;
69150;SDS011;56257;52.196;13.870;2022-08-11T16:53:33;6.03;;;1.83;;
69150;SDS011;56257;52.196;13.870;2022-08-11T16:56:27;9.18;;;1.70;;
69150;SDS011;56257;52.196;13.870;2022-08-11T16:59:00;10.88;;;1.38;;
69150;SDS011;56257;52.196;13.870;2022-08-11T17:04:35;9.73;;;2.13;;
69150;SDS011;56257;52.196;13.870;2022-08-11T17:07:25;6.72;;;1.40;;
69150;SDS011;56257;52.196;13.870;2022-08-11T17:10:17;5.68;;;1.50;;
69150;SDS011;56257;52.196;13.870;2022-08-11T17:13:20;8.63;;;1.73;;
69150;SDS011;56257;52.196;13.870;2022-08-11T17:15:50;7.97;;;1.80;;
69150;SDS011;56257;52.196;13.870;2022-08-11T17:18:36;6.85;;;1.35;;
69150;SDS011;56257;52.196;13.870;2022-08-11T17:24:03;9.32;;;1.95;;
69150;SDS011;56257;52.196;13.870;2022-08-11T17:29:24;4.53;;;1.50;;
69150;SDS011;56257;52.196;13.870;2022-08-11T17:32:19;5.20;;;1.70;;
69150;SDS011;56257;52.196;13.870;2022-08-11T17:35:23;11.80;;;2.03;;
69150;SDS011;56257;52.196;13.870;2022-08-11T17:40:48;3.25;;;1.48;;
69150;SDS011;56257;52.196;13.870;2022-08-11T17:43:48;4.93;;;1.80;;
69150;SDS011;56257;52.196;13.870;2022-08-11T17:46:34;4.32;;;1.70;;
69150;SDS011;56257;52.196;13.870;2022-08-11T17:49:20;3.15;;;1.40;;
69150;SDS011;56257;52.196;13.870;2022-08-11T17:51:48;5.47;;;1.70;;
69150;SDS011;56257;52.196;13.870;2022-08-11T17:54:35;5.35;;;1.70;;
69150;SDS011;56257;52.196;13.870;2022-08-11T17:57:22;3.63;;;1.60;;
69150;SDS011;56257;52.196;13.870;2022-08-11T18:00:12;4.90;;;1.77;;
69150;SDS011;56257;52.196;13.870;2022-08-11T18:02:41;5.55;;;1.35;;
69150;SDS011;56257;52.196;13.870;2022-08-11T18:05:28;7.50;;;1.52;;
69150;SDS011;56257;52.196;13.870;2022-08-11T18:08:02;4.90;;;1.80;;
69150;SDS011;56257;52.196;13.870;2022-08-11T18:10:49;3.37;;;1.50;;
69150;SDS011;56257;52.196;13.870;2022-08-11T18:13:36;3.22;;;1.42;;
69150;SDS011;56257;52.196;13.870;2022-08-11T18:16:22;5.75;;;1.52;;
69150;SDS011;56257;52.196;13.870;2022-08-11T18:19:08;3.42;;;1.50;;
69150;SDS011;56257;52.196;13.870;2022-08-11T18:22:00;3.35;;;1.52;;
69150;SDS011;56257;52.196;13.870;2022-08-11T18:24:52;3.10;;;1.20;;
69150;SDS011;56257;52.196;13.870;2022-08-11T18:27:41;4.25;;;1.40;;
69150;SDS011;56257;52.196;13.870;2022-08-11T18:30:29;4.18;;;1.30;;
69150;SDS011;56257;52.196;13.870;2022-08-11T18:33:29;3.40;;;1.75;;
69150;SDS011;56257;52.196;13.870;2022-08-11T18:36:34;4.97;;;1.60;;
69150;SDS011;56257;52.196;13.870;2022-08-11T18:39:22;4.20;;;1.40;;
69150;SDS011;56257;52.196;13.870;2022-08-11T18:42:20;3.10;;;1.33;;
69150;SDS011;56257;52.196;13.870;2022-08-11T18:45:08;3.33;;;1.42;;
69150;SDS011;56257;52.196;13.870;2022-08-11T18:47:59;5.75;;;1.90;;
69150;SDS011;56257;52.196;13.870;2022-08-11T18:50:50;3.38;;;1.50;;
69150;SDS011;56257;52.196;13.870;2022-08-11T18:53:59;4.57;;;1.53;;
69150;SDS011;56257;52.196;13.870;2022-08-11T18:56:47;3.35;;;1.25;;
69150;SDS011;56257;52.196;13.870;2022-08-11T18:59:34;3.20;;;1.20;;
69150;SDS011;56257;52.196;13.870;2022-08-11T19:02:22;4.03;;;1.83;;
69150;SDS011;56257;52.196;13.870;2022-08-11T19:05:15;5.55;;;1.65;;
69150;SDS011;56257;52.196;13.870;2022-08-11T19:08:22;4.27;;;1.70;;
69150;SDS011;56257;52.196;13.870;2022-08-11T19:11:11;3.50;;;1.52;;
69150;SDS011;56257;52.196;13.870;2022-08-11T19:13:57;3.45;;;1.13;;
69150;SDS011;56257;52.196;13.870;2022-08-11T19:16:43;5.88;;;1.50;;
69150;SDS011;56257;52.196;13.870;2022-08-11T19:19:29;4.22;;;1.75;;
69150;SDS011;56257;52.196;13.870;2022-08-11T19:22:15;4.73;;;1.47;;